sensor_id;sensor_type;location;lat;lon;timestamp;pressure;altitude;pressure_sealevel;temperature;humidity
53300;BME280;39187;48.476;8.310;2023-08-01T00:02:19;90528.69;;;14.38;100.00
53300;BME280;39187;48.476;8.310;2023-08-01T00:04:44;90517.63;;;14.36;100.00
53300;BME280;39187;48.476;8.310;2023-08-01T00:07:10;90519.91;;;14.38;100.00
53300;BME280;39187;48.476;8.310;2023-08-01T00:09:35;90509.28;;;14.53;100.00
53300;BME280;39187;48.476;8.310;2023-08-01T00:12:01;90514.03;;;14.49;100.00
53300;BME280;39187;48.476;8.310;2023-08-01T00:14:26;90504.03;;;14.58;100.00
53300;BME280;39187;48.476;8.310;2023-08-01T00:16:51;90498.78;;;14.64;100.00
53300;BME280;39187;48.476;8.310;2023-08-01T00:19:18;90490.69;;;14.49;100.00
53300;BME280;39187;48.476;8.310;2023-08-01T00:21:43;90498.09;;;14.54;100.00
53300;BME280;39187;48.476;8.310;2023-08-01T00:24:09;90485.91;;;14.53;100.00
53300;BME280;39187;48.476;8.310;2023-08-01T00:26:34;90492.25;;;14.65;100.00
53300;BME280;39187;48.476;8.310;2023-08-01T00:29:00;90479.59;;;14.65;100.00
53300;BME280;39187;48.476;8.310;2023-08-01T00:31:26;90472.56;;;14.68;100.00
53300;BME280;39187;48.476;8.310;2023-08-01T00:33:51;90471.94;;;14.73;100.00
53300;BME280;39187;48.476;8.310;2023-08-01T00:36:17;90471.50;;;14.74;100.00
53300;BME280;39187;48.476;8.310;2023-08-01T00:38:42;90466.31;;;14.71;100.00
53300;BME280;39187;48.476;8.310;2023-08-01T00:41:11;90462.81;;;14.79;100.00
53300;BME280;39187;48.476;8.310;2023-08-01T00:43:37;90463.63;;;14.71;100.00
53300;BME280;39187;48.476;8.310;2023-08-01T00:46:04;90468.88;;;14.89;100.00
53300;BME280;39187;48.476;8.310;2023-08-01T00:48:30;90476.06;;;14.83;100.00
53300;BME280;39187;48.476;8.310;2023-08-01T00:50:58;90461.47;;;14.84;100.00
53300;BME280;39187;48.476;8.310;2023-08-01T00:53:25;90454.78;;;14.79;100.00
53300;BME280;39187;48.476;8.310;2023-08-01T00:55:54;90459.41;;;14.79;100.00
53300;BME280;39187;48.476;8.310;2023-08-01T00:58:20;90452.44;;;14.96;100.00
53300;BME280;39187;48.476;8.310;2023-08-01T01:00:46;90451.69;;;14.96;100.00
53300;BME280;39187;48.476;8.310;2023-08-01T01:03:12;90440.78;;;14.84;100.00
53300;BME280;39187;48.476;8.310;2023-08-01T01:05:47;90443.16;;;14.82;100.00
53300;BME280;39187;48.476;8.310;2023-08-01T01:08:13;90445.41;;;14.84;100.00
53300;BME280;39187;48.476;8.310;2023-08-01T01:10:39;90442.88;;;14.80;100.00
53300;BME280;39187;48.476;8.310;2023-08-01T01:13:04;90430.78;;;14.85;100.00
53300;BME280;39187;48.476;8.310;2023-08-01T01:15:30;90417.97;;;14.89;100.00
53300;BME280;39187;48.476;8.310;2023-08-01T01:17:55;90429.22;;;14.93;100.00
53300;BME280;39187;48.476;8.310;2023-08-01T01:20:24;90423.88;;;14.93;100.00
53300;BME280;39187;48.476;8.310;2023-08-01T01:22:51;90419.06;;;14.82;100.00
53300;BME280;39187;48.476;8.310;2023-08-01T01:25:19;90419.34;;;14.84;100.00
53300;BME280;39187;48.476;8.310;2023-08-01T01:27:46;90414.63;;;14.94;100.00
53300;BME280;39187;48.476;8.310;2023-08-01T01:30:12;90422.31;;;15.01;100.00
53300;BME280;39187;48.476;8.310;2023-08-01T01:32:38;90424.56;;;15.03;100.00
53300;BME280;39187;48.476;8.310;2023-08-01T01:35:04;90410.56;;;14.99;100.00
53300;BME280;39187;48.476;8.310;2023-08-01T01:37:30;90400.91;;;15.16;100.00
53300;BME280;39187;48.476;8.310;2023-08-01T01:39:56;90398.66;;;15.00;100.00
53300;BME280;39187;48.476;8.310;2023-08-01T01:42:21;90382.97;;;15.07;100.00
53300;BME280;39187;48.476;8.310;2023-08-01T01:44:46;90385.09;;;15.03;100.00
53300;BME280;39187;48.476;8.310;2023-08-01T01:47:12;90373.53;;;14.97;100.00
53300;BME280;39187;48.476;8.310;2023-08-01T01:49:37;90368.72;;;15.01;100.00
53300;BME280;39187;48.476;8.310;2023-08-01T01:52:03;90367.91;;;14.95;100.00
53300;BME280;39187;48.476;8.310;2023-08-01T01:54:29;90370.84;;;15.12;100.00
53300;BME280;39187;48.476;8.310;2023-08-01T01:56:54;90368.19;;;14.97;100.00
53300;BME280;39187;48.476;8.310;2023-08-01T01:59:20;90370.09;;;14.82;100.00
53300;BME280;39187;48.476;8.310;2023-08-01T02:01:45;90361.69;;;14.89;100.00
53300;BME280;39187;48.476;8.310;2023-08-01T02:04:11;90362.28;;;15.08;100.00
53300;BME280;39187;48.476;8.310;2023-08-01T02:06:36;90348.59;;;14.91;100.00
53300;BME280;39187;48.476;8.310;2023-08-01T02:09:02;90352.09;;;14.97;100.00
53300;BME280;39187;48.476;8.310;2023-08-01T02:11:28;90349.31;;;14.92;100.00
53300;BME280;39187;48.476;8.310;2023-08-01T02:13:54;90349.97;;;15.01;100.00
53300;BME280;39187;48.476;8.310;2023-08-01T02:16:19;90352.47;;;15.05;100.00
53300;BME280;39187;48.476;8.310;2023-08-01T02:18:45;90347.75;;;15.00;100.00
53300;BME280;39187;48.476;8.310;2023-08-01T02:21:10;90348.84;;;14.93;100.00
53300;BME280;39187;48.476;8.310;2023-08-01T02:23:36;90354.03;;;15.11;100.00
53300;BME280;39187;48.476;8.310;2023-08-01T02:26:01;90349.97;;;15.01;100.00
53300;BME280;39187;48.476;8.310;2023-08-01T02:28:27;90360.97;;;15.03;100.00
53300;BME280;39187;48.476;8.310;2023-08-01T02:30:52;90360.88;;;14.98;100.00
53300;BME280;39187;48.476;8.310;2023-08-01T02:33:18;90355.34;;;15.16;100.00
53300;BME280;39187;48.476;8.310;2023-08-01T02:35:43;90357.66;;;15.08;100.00
53300;BME280;39187;48.476;8.310;2023-08-01T02:38:09;90363.66;;;15.03;100.00
53300;BME280;39187;48.476;8.310;2023-08-01T02:40:34;90357.63;;;14.94;100.00
53300;BME280;39187;48.476;8.310;2023-08-01T02:43:00;90376.38;;;14.94;100.00
53300;BME280;39187;48.476;8.310;2023-08-01T02:45:25;90382.75;;;14.81;100.00
53300;BME280;39187;48.476;8.310;2023-08-01T02:47:50;90377.63;;;14.69;100.00
53300;BME280;39187;48.476;8.310;2023-08-01T02:50:16;90364.19;;;14.54;100.00
53300;BME280;39187;48.476;8.310;2023-08-01T02:52:41;90370.84;;;14.35;100.00
53300;BME280;39187;48.476;8.310;2023-08-01T02:55:07;90374.25;;;14.44;100.00
53300;BME280;39187;48.476;8.310;2023-08-01T02:57:33;90374.47;;;14.32;100.00
53300;BME280;39187;48.476;8.310;2023-08-01T02:59:58;90369.84;;;14.32;100.00
53300;BME280;39187;48.476;8.310;2023-08-01T03:02:24;90357.78;;;14.13;100.00
53300;BME280;39187;48.476;8.310;2023-08-01T03:04:50;90360.97;;;14.26;100.00
53300;BME280;39187;48.476;8.310;2023-08-01T03:07:15;90358.19;;;14.21;100.00
53300;BME280;39187;48.476;8.310;2023-08-01T03:09:41;90355.84;;;14.14;100.00
53300;BME280;39187;48.476;8.310;2023-08-01T03:12:08;90351.72;;;14.03;100.00
53300;BME280;39187;48.476;8.310;2023-08-01T03:14:33;90353.44;;;13.92;100.00
53300;BME280;39187;48.476;8.310;2023-08-01T03:16:59;90348.78;;;14.01;100.00
53300;BME280;39187;48.476;8.310;2023-08-01T03:19:24;90357.28;;;13.91;100.00
53300;BME280;39187;48.476;8.310;2023-08-01T03:21:50;90354.50;;;13.85;100.00
53300;BME280;39187;48.476;8.310;2023-08-01T03:24:15;90350.94;;;13.88;100.00
53300;BME280;39187;48.476;8.310;2023-08-01T03:26:41;90343.03;;;13.94;100.00
53300;BME280;39187;48.476;8.310;2023-08-01T03:29:06;90360.88;;;13.88;100.00
53300;BME280;39187;48.476;8.310;2023-08-01T03:31:31;90378.81;;;13.96;100.00
53300;BME280;39187;48.476;8.310;2023-08-01T03:33:57;90382.22;;;13.97;100.00
53300;BME280;39187;48.476;8.310;2023-08-01T03:36:25;90375.56;;;13.92;100.00
53300;BME280;39187;48.476;8.310;2023-08-01T03:38:51;90384.56;;;14.04;100.00
53300;BME280;39187;48.476;8.310;2023-08-01T03:41:17;90375.59;;;13.83;100.00
53300;BME280;39187;48.476;8.310;2023-08-01T03:43:42;90371.84;;;13.90;100.00
53300;BME280;39187;48.476;8.310;2023-08-01T03:46:09;90352.69;;;13.91;100.00
53300;BME280;39187;48.476;8.310;2023-08-01T03:48:35;90361.75;;;13.94;100.00
53300;BME280;39187;48.476;8.310;2023-08-01T03:51:00;90355.06;;;13.89;100.00
53300;BME280;39187;48.476;8.310;2023-08-01T03:53:28;90364.34;;;14.03;100.00
53300;BME280;39187;48.476;8.310;2023-08-01T03:55:53;90348.03;;;14.01;100.00
53300;BME280;39187;48.476;8.310;2023-08-01T03:58:19;90335.78;;;13.85;100.00
53300;BME280;39187;48.476;8.310;2023-08-01T04:00:44;90328.78;;;13.88;100.00
53300;BME280;39187;48.476;8.310;2023-08-01T04:03:10;90346.66;;;14.05;100.00
53300;BME280;39187;48.476;8.310;2023-08-01T04:05:36;90373.88;;;14.04;100.00
53300;BME280;39187;48.476;8.310;2023-08-01T04:08:01;90375.03;;;14.12;100.00
53300;BME280;39187;48.476;8.310;2023-08-01T04:10:27;90366.66;;;14.19;100.00
53300;BME280;39187;48.476;8.310;2023-08-01T04:12:52;90338.44;;;13.85;100.00
53300;BME280;39187;48.476;8.310;2023-08-01T04:15:18;90309.91;;;13.58;100.00
53300;BME280;39187;48.476;8.310;2023-08-01T04:17:44;90286.56;;;13.35;100.00
53300;BME280;39187;48.476;8.310;2023-08-01T04:20:09;90258.22;;;13.38;100.00
53300;BME280;39187;48.476;8.310;2023-08-01T04:22:35;90234.97;;;13.20;100.00
53300;BME280;39187;48.476;8.310;2023-08-01T04:25:01;90263.72;;;13.25;100.00
53300;BME280;39187;48.476;8.310;2023-08-01T04:27:27;90217.84;;;13.27;100.00
53300;BME280;39187;48.476;8.310;2023-08-01T04:29:53;90190.91;;;13.06;100.00
53300;BME280;39187;48.476;8.310;2023-08-01T04:32:19;90192.59;;;12.95;100.00
53300;BME280;39187;48.476;8.310;2023-08-01T04:34:45;90228.47;;;13.12;100.00
53300;BME280;39187;48.476;8.310;2023-08-01T04:37:10;90244.50;;;13.03;100.00
53300;BME280;39187;48.476;8.310;2023-08-01T04:39:36;90272.09;;;13.18;100.00
53300;BME280;39187;48.476;8.310;2023-08-01T04:42:02;90240.03;;;13.18;100.00
53300;BME280;39187;48.476;8.310;2023-08-01T04:44:27;90264.81;;;13.18;100.00
53300;BME280;39187;48.476;8.310;2023-08-01T04:46:54;90268.69;;;13.17;100.00
53300;BME280;39187;48.476;8.310;2023-08-01T04:49:20;90257.84;;;13.12;100.00
53300;BME280;39187;48.476;8.310;2023-08-01T04:51:45;90243.28;;;13.22;100.00
53300;BME280;39187;48.476;8.310;2023-08-01T04:54:11;90236.63;;;13.17;100.00
53300;BME280;39187;48.476;8.310;2023-08-01T04:56:36;90243.69;;;13.30;100.00
53300;BME280;39187;48.476;8.310;2023-08-01T04:59:01;90255.06;;;13.39;100.00
53300;BME280;39187;48.476;8.310;2023-08-01T05:01:27;90258.34;;;13.34;100.00
53300;BME280;39187;48.476;8.310;2023-08-01T05:03:53;90239.69;;;13.25;100.00
53300;BME280;39187;48.476;8.310;2023-08-01T05:06:18;90229.00;;;13.25;100.00
53300;BME280;39187;48.476;8.310;2023-08-01T05:08:44;90233.56;;;13.34;100.00
53300;BME280;39187;48.476;8.310;2023-08-01T05:11:09;90251.38;;;13.37;100.00
53300;BME280;39187;48.476;8.310;2023-08-01T05:13:35;90242.50;;;13.31;100.00
53300;BME280;39187;48.476;8.310;2023-08-01T05:16:00;90245.72;;;13.35;100.00
53300;BME280;39187;48.476;8.310;2023-08-01T05:18:26;90247.09;;;13.30;100.00
53300;BME280;39187;48.476;8.310;2023-08-01T05:20:52;90248.44;;;13.25;100.00
53300;BME280;39187;48.476;8.310;2023-08-01T05:23:17;90250.38;;;13.25;100.00
53300;BME280;39187;48.476;8.310;2023-08-01T05:25:43;90263.59;;;13.29;100.00
53300;BME280;39187;48.476;8.310;2023-08-01T05:28:08;90264.22;;;13.14;100.00
53300;BME280;39187;48.476;8.310;2023-08-01T05:30:34;90261.59;;;12.96;100.00
53300;BME280;39187;48.476;8.310;2023-08-01T05:32:59;90241.00;;;12.88;100.00
53300;BME280;39187;48.476;8.310;2023-08-01T05:35:25;90246.34;;;12.88;100.00
53300;BME280;39187;48.476;8.310;2023-08-01T05:37:51;90241.47;;;12.86;100.00
53300;BME280;39187;48.476;8.310;2023-08-01T05:40:16;90221.00;;;12.74;100.00
53300;BME280;39187;48.476;8.310;2023-08-01T05:42:42;90234.84;;;12.72;100.00
53300;BME280;39187;48.476;8.310;2023-08-01T05:45:08;90225.47;;;12.68;100.00
53300;BME280;39187;48.476;8.310;2023-08-01T05:47:33;90231.44;;;12.63;100.00
53300;BME280;39187;48.476;8.310;2023-08-01T05:50:01;90225.94;;;12.66;100.00
53300;BME280;39187;48.476;8.310;2023-08-01T05:52:26;90210.38;;;12.56;100.00
53300;BME280;39187;48.476;8.310;2023-08-01T05:54:52;90214.09;;;12.58;100.00
53300;BME280;39187;48.476;8.310;2023-08-01T05:57:17;90208.59;;;12.62;100.00
53300;BME280;39187;48.476;8.310;2023-08-01T05:59:43;90219.88;;;12.57;100.00
53300;BME280;39187;48.476;8.310;2023-08-01T06:02:08;90225.81;;;12.61;100.00
53300;BME280;39187;48.476;8.310;2023-08-01T06:04:34;90218.88;;;12.54;100.00
53300;BME280;39187;48.476;8.310;2023-08-01T06:06:59;90218.72;;;12.49;100.00
53300;BME280;39187;48.476;8.310;2023-08-01T06:09:25;90230.69;;;12.62;100.00
53300;BME280;39187;48.476;8.310;2023-08-01T06:11:51;90237.13;;;12.47;100.00
53300;BME280;39187;48.476;8.310;2023-08-01T06:14:17;90230.44;;;12.51;100.00
53300;BME280;39187;48.476;8.310;2023-08-01T06:16:42;90249.09;;;12.60;100.00
53300;BME280;39187;48.476;8.310;2023-08-01T06:19:08;90226.00;;;12.39;100.00
53300;BME280;39187;48.476;8.310;2023-08-01T06:21:33;90226.88;;;12.45;100.00
53300;BME280;39187;48.476;8.310;2023-08-01T06:23:59;90224.81;;;12.40;100.00
53300;BME280;39187;48.476;8.310;2023-08-01T06:26:25;90234.44;;;12.37;100.00
53300;BME280;39187;48.476;8.310;2023-08-01T06:28:50;90212.97;;;12.41;100.00
53300;BME280;39187;48.476;8.310;2023-08-01T06:31:19;90212.97;;;12.41;100.00
53300;BME280;39187;48.476;8.310;2023-08-01T06:33:44;90223.22;;;12.33;100.00
53300;BME280;39187;48.476;8.310;2023-08-01T06:36:10;90207.63;;;12.32;100.00
53300;BME280;39187;48.476;8.310;2023-08-01T06:38:35;90215.19;;;12.33;100.00
53300;BME280;39187;48.476;8.310;2023-08-01T06:41:01;90211.34;;;12.34;100.00
53300;BME280;39187;48.476;8.310;2023-08-01T06:43:26;90214.75;;;12.35;100.00
53300;BME280;39187;48.476;8.310;2023-08-01T06:45:52;90210.75;;;12.39;100.00
53300;BME280;39187;48.476;8.310;2023-08-01T06:48:17;90227.63;;;12.36;100.00
53300;BME280;39187;48.476;8.310;2023-08-01T06:50:43;90223.81;;;12.28;100.00
53300;BME280;39187;48.476;8.310;2023-08-01T06:53:08;90219.34;;;12.34;100.00
53300;BME280;39187;48.476;8.310;2023-08-01T06:55:34;90220.38;;;12.37;100.00
53300;BME280;39187;48.476;8.310;2023-08-01T06:58:00;90228.09;;;12.26;100.00
53300;BME280;39187;48.476;8.310;2023-08-01T07:00:25;90200.81;;;12.31;100.00
53300;BME280;39187;48.476;8.310;2023-08-01T07:02:50;90236.97;;;12.32;100.00
53300;BME280;39187;48.476;8.310;2023-08-01T07:05:16;90211.94;;;12.29;100.00
53300;BME280;39187;48.476;8.310;2023-08-01T07:07:41;90231.66;;;12.41;100.00
53300;BME280;39187;48.476;8.310;2023-08-01T07:10:07;90221.25;;;12.43;100.00
53300;BME280;39187;48.476;8.310;2023-08-01T07:12:33;90237.25;;;12.43;100.00
53300;BME280;39187;48.476;8.310;2023-08-01T07:14:58;90240.66;;;12.43;100.00
53300;BME280;39187;48.476;8.310;2023-08-01T07:17:24;90232.81;;;12.40;100.00
53300;BME280;39187;48.476;8.310;2023-08-01T07:19:49;90235.19;;;12.38;100.00
53300;BME280;39187;48.476;8.310;2023-08-01T07:22:15;90235.94;;;12.38;100.00
53300;BME280;39187;48.476;8.310;2023-08-01T07:24:40;90250.03;;;12.39;100.00
53300;BME280;39187;48.476;8.310;2023-08-01T07:27:06;90250.16;;;12.35;100.00
53300;BME280;39187;48.476;8.310;2023-08-01T07:29:31;90243.06;;;12.32;100.00
53300;BME280;39187;48.476;8.310;2023-08-01T07:31:57;90243.06;;;12.32;100.00
53300;BME280;39187;48.476;8.310;2023-08-01T07:34:22;90249.44;;;12.35;100.00
53300;BME280;39187;48.476;8.310;2023-08-01T07:36:48;90237.72;;;12.32;100.00
53300;BME280;39187;48.476;8.310;2023-08-01T07:39:15;90249.88;;;12.33;100.00
53300;BME280;39187;48.476;8.310;2023-08-01T07:41:40;90248.53;;;12.38;100.00
53300;BME280;39187;48.476;8.310;2023-08-01T07:44:06;90250.47;;;12.37;100.00
53300;BME280;39187;48.476;8.310;2023-08-01T07:46:32;90245.00;;;12.41;100.00
53300;BME280;39187;48.476;8.310;2023-08-01T07:48:58;90237.25;;;12.43;100.00
53300;BME280;39187;48.476;8.310;2023-08-01T07:51:27;90218.56;;;12.43;100.00
53300;BME280;39187;48.476;8.310;2023-08-01T07:53:54;90220.97;;;12.41;100.00
53300;BME280;39187;48.476;8.310;2023-08-01T07:56:20;90235.06;;;12.41;100.00
53300;BME280;39187;48.476;8.310;2023-08-01T07:58:46;90229.69;;;12.51;100.00
53300;BME280;39187;48.476;8.310;2023-08-01T08:01:11;90240.94;;;12.55;100.00
53300;BME280;39187;48.476;8.310;2023-08-01T08:03:36;90241.09;;;12.60;100.00
53300;BME280;39187;48.476;8.310;2023-08-01T08:06:02;90249.09;;;12.51;100.00
53300;BME280;39187;48.476;8.310;2023-08-01T08:08:29;90252.66;;;12.57;100.00
53300;BME280;39187;48.476;8.310;2023-08-01T08:10:55;90237.09;;;12.56;100.00
53300;BME280;39187;48.476;8.310;2023-08-01T08:13:21;90239.75;;;12.56;100.00
53300;BME280;39187;48.476;8.310;2023-08-01T08:15:46;90257.84;;;12.61;100.00
53300;BME280;39187;48.476;8.310;2023-08-01T08:18:12;90262.44;;;12.60;100.00
53300;BME280;39187;48.476;8.310;2023-08-01T08:20:42;90256.63;;;12.62;100.00
53300;BME280;39187;48.476;8.310;2023-08-01T08:23:09;90250.00;;;12.57;100.00
53300;BME280;39187;48.476;8.310;2023-08-01T08:25:57;90248.31;;;12.69;100.00
53300;BME280;39187;48.476;8.310;2023-08-01T08:28:30;90245.81;;;12.65;100.00
53300;BME280;39187;48.476;8.310;2023-08-01T08:30:58;90253.22;;;12.70;100.00
53300;BME280;39187;48.476;8.310;2023-08-01T08:33:24;90262.28;;;12.73;100.00
53300;BME280;39187;48.476;8.310;2023-08-01T08:35:50;90258.25;;;12.68;100.00
53300;BME280;39187;48.476;8.310;2023-08-01T08:38:17;90263.00;;;12.73;100.00
53300;BME280;39187;48.476;8.310;2023-08-01T08:40:52;90260.78;;;12.72;100.00
53300;BME280;39187;48.476;8.310;2023-08-01T08:43:21;90250.56;;;12.70;100.00
53300;BME280;39187;48.476;8.310;2023-08-01T08:45:48;90249.66;;;12.73;100.00
53300;BME280;39187;48.476;8.310;2023-08-01T08:48:17;90252.28;;;12.92;100.00
53300;BME280;39187;48.476;8.310;2023-08-01T08:50:45;90261.19;;;12.89;100.00
53300;BME280;39187;48.476;8.310;2023-08-01T08:53:11;90257.03;;;12.88;100.00
53300;BME280;39187;48.476;8.310;2023-08-01T08:55:39;90262.50;;;12.93;100.00
53300;BME280;39187;48.476;8.310;2023-08-01T08:58:05;90260.13;;;12.95;100.00
53300;BME280;39187;48.476;8.310;2023-08-01T09:00:31;90265.25;;;13.08;100.00
53300;BME280;39187;48.476;8.310;2023-08-01T09:02:57;90258.00;;;13.17;100.00
53300;BME280;39187;48.476;8.310;2023-08-01T09:05:27;90262.88;;;13.10;100.00
53300;BME280;39187;48.476;8.310;2023-08-01T09:07:55;90260.66;;;13.08;100.00
53300;BME280;39187;48.476;8.310;2023-08-01T09:10:22;90266.31;;;13.10;100.00
53300;BME280;39187;48.476;8.310;2023-08-01T09:12:48;90269.28;;;13.12;100.00
53300;BME280;39187;48.476;8.310;2023-08-01T09:15:14;90258.00;;;13.17;100.00
53300;BME280;39187;48.476;8.310;2023-08-01T09:17:50;90277.44;;;13.18;100.00
53300;BME280;39187;48.476;8.310;2023-08-01T09:20:16;90280.84;;;13.18;100.00
53300;BME280;39187;48.476;8.310;2023-08-01T09:22:46;90279.50;;;13.23;100.00
53300;BME280;39187;48.476;8.310;2023-08-01T09:25:12;90302.34;;;13.24;100.00
53300;BME280;39187;48.476;8.310;2023-08-01T09:27:38;90292.81;;;13.32;100.00
53300;BME280;39187;48.476;8.310;2023-08-01T09:30:07;90292.78;;;13.41;100.00
53300;BME280;39187;48.476;8.310;2023-08-01T09:32:33;90307.66;;;13.33;100.00
53300;BME280;39187;48.476;8.310;2023-08-01T09:34:59;90303.75;;;13.43;100.00
53300;BME280;39187;48.476;8.310;2023-08-01T09:37:25;90302.75;;;13.32;100.00
53300;BME280;39187;48.476;8.310;2023-08-01T09:39:54;90295.75;;;13.43;100.00
53300;BME280;39187;48.476;8.310;2023-08-01T09:42:23;90307.72;;;13.57;100.00
53300;BME280;39187;48.476;8.310;2023-08-01T09:44:48;90321.22;;;13.53;100.00
53300;BME280;39187;48.476;8.310;2023-08-01T09:47:14;90319.75;;;13.52;100.00
53300;BME280;39187;48.476;8.310;2023-08-01T09:49:48;90304.22;;;13.42;100.00
53300;BME280;39187;48.476;8.310;2023-08-01T09:52:26;90321.53;;;13.55;100.00
53300;BME280;39187;48.476;8.310;2023-08-01T09:54:52;90323.16;;;13.53;100.00
53300;BME280;39187;48.476;8.310;2023-08-01T09:57:18;90320.03;;;13.54;100.00
53300;BME280;39187;48.476;8.310;2023-08-01T09:59:45;90315.00;;;13.56;100.00
53300;BME280;39187;48.476;8.310;2023-08-01T10:02:15;90312.91;;;13.51;100.00
53300;BME280;39187;48.476;8.310;2023-08-01T10:04:42;90308.41;;;13.67;100.00
53300;BME280;39187;48.476;8.310;2023-08-01T10:07:10;90326.59;;;13.77;100.00
53300;BME280;39187;48.476;8.310;2023-08-01T10:09:40;90310.91;;;13.94;100.00
53300;BME280;39187;48.476;8.310;2023-08-01T10:12:07;90318.44;;;14.04;100.00
53300;BME280;39187;48.476;8.310;2023-08-01T10:14:33;90322.00;;;14.25;100.00
53300;BME280;39187;48.476;8.310;2023-08-01T10:16:58;90323.66;;;14.23;100.00
53300;BME280;39187;48.476;8.310;2023-08-01T10:19:24;90319.22;;;14.20;100.00
53300;BME280;39187;48.476;8.310;2023-08-01T10:21:51;90324.50;;;14.29;100.00
53300;BME280;39187;48.476;8.310;2023-08-01T10:24:19;90325.06;;;14.57;100.00
53300;BME280;39187;48.476;8.310;2023-08-01T10:26:45;90324.97;;;14.27;100.00
53300;BME280;39187;48.476;8.310;2023-08-01T10:29:13;90324.16;;;14.36;100.00
53300;BME280;39187;48.476;8.310;2023-08-01T10:31:39;90320.47;;;14.33;100.00
53300;BME280;39187;48.476;8.310;2023-08-01T10:34:15;90326.81;;;14.36;100.00
53300;BME280;39187;48.476;8.310;2023-08-01T10:36:56;90322.56;;;14.29;100.00
53300;BME280;39187;48.476;8.310;2023-08-01T10:39:23;90321.81;;;14.29;100.00
53300;BME280;39187;48.476;8.310;2023-08-01T10:41:57;90329.47;;;13.97;100.00
53300;BME280;39187;48.476;8.310;2023-08-01T10:44:24;90339.22;;;13.77;100.00
53300;BME280;39187;48.476;8.310;2023-08-01T10:46:55;90341.97;;;13.91;100.00
53300;BME280;39187;48.476;8.310;2023-08-01T10:49:34;90358.66;;;13.86;100.00
53300;BME280;39187;48.476;8.310;2023-08-01T10:52:00;90339.88;;;13.95;100.00
53300;BME280;39187;48.476;8.310;2023-08-01T10:54:26;90342.69;;;14.01;100.00
53300;BME280;39187;48.476;8.310;2023-08-01T10:56:53;90338.34;;;14.27;100.00
53300;BME280;39187;48.476;8.310;2023-08-01T10:59:20;90351.75;;;14.27;100.00
53300;BME280;39187;48.476;8.310;2023-08-01T11:01:51;90358.66;;;14.34;100.00
53300;BME280;39187;48.476;8.310;2023-08-01T11:04:21;90352.84;;;14.44;100.00
53300;BME280;39187;48.476;8.310;2023-08-01T11:06:49;90361.03;;;14.41;100.00
53300;BME280;39187;48.476;8.310;2023-08-01T11:09:20;90359.44;;;14.58;100.00
53300;BME280;39187;48.476;8.310;2023-08-01T11:11:51;90360.28;;;14.64;100.00
53300;BME280;39187;48.476;8.310;2023-08-01T11:14:20;90362.31;;;14.69;100.00
53300;BME280;39187;48.476;8.310;2023-08-01T11:16:48;90365.72;;;14.70;100.00
53300;BME280;39187;48.476;8.310;2023-08-01T11:19:27;90368.50;;;14.75;100.00
53300;BME280;39187;48.476;8.310;2023-08-01T11:21:53;90376.69;;;15.10;100.00
53300;BME280;39187;48.476;8.310;2023-08-01T11:24:22;90368.81;;;14.92;100.00
53300;BME280;39187;48.476;8.310;2023-08-01T11:26:49;90375.84;;;14.90;100.00
53300;BME280;39187;48.476;8.310;2023-08-01T11:29:16;90386.09;;;14.91;100.00
53300;BME280;39187;48.476;8.310;2023-08-01T11:32:01;90384.88;;;14.92;100.00
53300;BME280;39187;48.476;8.310;2023-08-01T11:34:26;90376.97;;;14.98;100.00
53300;BME280;39187;48.476;8.310;2023-08-01T11:36:52;90383.31;;;15.00;100.00
53300;BME280;39187;48.476;8.310;2023-08-01T11:39:18;90385.09;;;15.18;100.00
53300;BME280;39187;48.476;8.310;2023-08-01T11:41:44;90378.81;;;15.21;100.00
53300;BME280;39187;48.476;8.310;2023-08-01T11:44:10;90381.22;;;15.19;100.00
53300;BME280;39187;48.476;8.310;2023-08-01T11:46:38;90378.53;;;15.34;100.00
53300;BME280;39187;48.476;8.310;2023-08-01T11:49:06;90391.75;;;15.52;100.00
53300;BME280;39187;48.476;8.310;2023-08-01T11:51:39;90386.06;;;15.59;100.00
53300;BME280;39187;48.476;8.310;2023-08-01T11:54:05;90385.84;;;15.77;100.00
53300;BME280;39187;48.476;8.310;2023-08-01T11:56:33;90386.13;;;15.64;100.00
53300;BME280;39187;48.476;8.310;2023-08-01T11:58:58;90378.16;;;15.70;100.00
53300;BME280;39187;48.476;8.310;2023-08-01T12:01:25;90386.31;;;15.46;100.00
53300;BME280;39187;48.476;8.310;2023-08-01T12:03:54;90382.25;;;15.66;100.00
53300;BME280;39187;48.476;8.310;2023-08-01T12:06:23;90380.03;;;15.64;100.00
53300;BME280;39187;48.476;8.310;2023-08-01T12:08:52;90376.34;;;15.61;100.00
53300;BME280;39187;48.476;8.310;2023-08-01T12:11:26;90384.75;;;15.40;100.00
53300;BME280;39187;48.476;8.310;2023-08-01T12:16:35;90381.50;;;15.50;100.00
53300;BME280;39187;48.476;8.310;2023-08-01T12:19:00;90372.63;;;15.44;100.00
53300;BME280;39187;48.476;8.310;2023-08-01T12:21:26;90373.00;;;15.22;100.00
53300;BME280;39187;48.476;8.310;2023-08-01T12:23:51;90379.13;;;15.67;100.00
53300;BME280;39187;48.476;8.310;2023-08-01T12:26:17;90375.13;;;15.62;100.00
53300;BME280;39187;48.476;8.310;2023-08-01T12:28:42;90369.59;;;15.66;100.00
53300;BME280;39187;48.476;8.310;2023-08-01T12:31:08;90391.13;;;15.72;100.00
53300;BME280;39187;48.476;8.310;2023-08-01T12:33:33;90379.84;;;15.68;100.00
53300;BME280;39187;48.476;8.310;2023-08-01T12:35:59;90390.03;;;15.49;100.00
53300;BME280;39187;48.476;8.310;2023-08-01T12:38:26;90382.59;;;15.44;100.00
53300;BME280;39187;48.476;8.310;2023-08-01T12:40:51;90385.47;;;15.40;100.00
53300;BME280;39187;48.476;8.310;2023-08-01T12:43:17;90393.91;;;15.33;100.00
53300;BME280;39187;48.476;8.310;2023-08-01T12:45:43;90408.16;;;15.54;100.00
53300;BME280;39187;48.476;8.310;2023-08-01T12:48:08;90399.88;;;15.43;100.00
53300;BME280;39187;48.476;8.310;2023-08-01T12:50:34;90385.56;;;15.31;100.00